sensor_id;sensor_type;location;lat;lon;timestamp;pressure;altitude;pressure_sealevel;temperature;humidity
40013;BME280;37387;42.672;23.334;2023-05-24T00:03:48;942.1;;;12.8;100.0
40013;BME280;37387;42.672;23.334;2023-05-24T00:07:48;942.1;;;12.7;100.0
40013;BME280;37387;42.672;23.334;2023-05-24T00:10:48;942.1;;;12.6;100.0
40013;BME280;37387;42.672;23.334;2023-05-24T00:12:48;942.1;;;12.5;100.0
40013;BME280;37387;42.672;23.334;2023-05-24T00:32:48;942.1;;;12.4;100.0
40013;BME280;37387;42.672;23.334;2023-05-24T00:36:48;942.1;;;12.3;100.0
40013;BME280;37387;42.672;23.334;2023-05-24T00:37:49;942.0;;;12.4;100.0
40013;BME280;37387;42.672;23.334;2023-05-24T00:38:48;942.0;;;12.3;100.0
40013;BME280;37387;42.672;23.334;2023-05-24T00:39:48;942.0;;;12.2;100.0
40013;BME280;37387;42.672;23.334;2023-05-24T00:40:48;942.0;;;12.1;100.0
40013;BME280;37387;42.672;23.334;2023-05-24T00:41:48;942.0;;;12.2;100.0
40013;BME280;37387;42.672;23.334;2023-05-24T00:46:49;942.0;;;12.1;100.0
40013;BME280;37387;42.672;23.334;2023-05-24T00:51:48;942.0;;;12.0;100.0
40013;BME280;37387;42.672;23.334;2023-05-24T00:55:49;942.0;;;11.9;100.0
40013;BME280;37387;42.672;23.334;2023-05-24T00:56:48;942.0;;;12.0;100.0
40013;BME280;37387;42.672;23.334;2023-05-24T01:00:50;942.0;;;11.9;100.0
40013;BME280;37387;42.672;23.334;2023-05-24T01:07:50;942.0;;;11.8;100.0
40013;BME280;37387;42.672;23.334;2023-05-24T01:08:54;942.0;;;11.9;100.0
40013;BME280;37387;42.672;23.334;2023-05-24T01:09:54;942.0;;;11.8;100.0
40013;BME280;37387;42.672;23.334;2023-05-24T01:11:52;942.0;;;11.7;100.0
40013;BME280;37387;42.672;23.334;2023-05-24T01:13:51;942.0;;;11.6;100.0
40013;BME280;37387;42.672;23.334;2023-05-24T01:16:49;942.0;;;11.7;100.0
40013;BME280;37387;42.672;23.334;2023-05-24T01:31:50;942.2;;;11.6;100.0
40013;BME280;37387;42.672;23.334;2023-05-24T01:35:49;942.2;;;11.7;100.0
40013;BME280;37387;42.672;23.334;2023-05-24T01:44:50;942.2;;;11.8;100.0
40013;BME280;37387;42.672;23.334;2023-05-24T01:45:52;942.2;;;11.7;100.0
40013;BME280;37387;42.672;23.334;2023-05-24T01:46:49;942.2;;;11.8;100.0
40013;BME280;37387;42.672;23.334;2023-05-24T01:49:50;942.1;;;11.7;100.0
40013;BME280;37387;42.672;23.334;2023-05-24T02:01:49;942.1;;;11.6;100.0
40013;BME280;37387;42.672;23.334;2023-05-24T02:02:49;942.1;;;11.5;100.0
40013;BME280;37387;42.672;23.334;2023-05-24T02:03:49;942.1;;;11.4;100.0
40013;BME280;37387;42.672;23.334;2023-05-24T02:15:48;942.0;;;11.3;100.0
40013;BME280;37387;42.672;23.334;2023-05-24T02:17:48;942.0;;;11.2;100.0
40013;BME280;37387;42.672;23.334;2023-05-24T02:19:48;942.1;;;11.1;100.0
40013;BME280;37387;42.672;23.334;2023-05-24T02:21:48;942.1;;;11.0;100.0
40013;BME280;37387;42.672;23.334;2023-05-24T02:31:49;942.0;;;11.1;100.0
40013;BME280;37387;42.672;23.334;2023-05-24T02:39:48;942.0;;;11.0;100.0
40013;BME280;37387;42.672;23.334;2023-05-24T02:41:48;942.0;;;11.1;100.0
40013;BME280;37387;42.672;23.334;2023-05-24T02:42:49;942.0;;;11.0;100.0
40013;BME280;37387;42.672;23.334;2023-05-24T02:45:48;942.0;;;10.9;100.0
40013;BME280;37387;42.672;23.334;2023-05-24T02:46:48;942.0;;;11.0;100.0
40013;BME280;37387;42.672;23.334;2023-05-24T02:49:49;942.0;;;11.1;100.0
40013;BME280;37387;42.672;23.334;2023-05-24T02:52:49;942.0;;;11.2;100.0
40013;BME280;37387;42.672;23.334;2023-05-24T02:55:48;942.0;;;11.3;100.0
40013;BME280;37387;42.672;23.334;2023-05-24T03:02:48;942.0;;;11.4;100.0
40013;BME280;37387;42.672;23.334;2023-05-24T03:03:48;942.0;;;11.3;100.0
40013;BME280;37387;42.672;23.334;2023-05-24T03:04:49;942.0;;;11.4;100.0
40013;BME280;37387;42.672;23.334;2023-05-24T03:05:48;942.0;;;11.3;100.0
40013;BME280;37387;42.672;23.334;2023-05-24T03:06:48;942.0;;;11.4;100.0
40013;BME280;37387;42.672;23.334;2023-05-24T03:08:49;942.0;;;11.5;100.0
40013;BME280;37387;42.672;23.334;2023-05-24T03:10:48;942.1;;;11.6;100.0
40013;BME280;37387;42.672;23.334;2023-05-24T03:13:50;942.2;;;11.7;100.0
40013;BME280;37387;42.672;23.334;2023-05-24T03:16:50;942.3;;;11.8;100.0
40013;BME280;37387;42.672;23.334;2023-05-24T03:18:48;942.3;;;11.9;100.0
40013;BME280;37387;42.672;23.334;2023-05-24T03:19:49;942.2;;;12.1;100.0
40013;BME280;37387;42.672;23.334;2023-05-24T03:20:49;942.2;;;12.2;100.0
40013;BME280;37387;42.672;23.334;2023-05-24T03:21:48;942.3;;;12.5;100.0
40013;BME280;37387;42.672;23.334;2023-05-24T03:22:48;942.3;;;12.6;100.0
40013;BME280;37387;42.672;23.334;2023-05-24T03:23:48;942.3;;;12.8;100.0
40013;BME280;37387;42.672;23.334;2023-05-24T03:24:50;942.3;;;12.9;100.0
40013;BME280;37387;42.672;23.334;2023-05-24T03:25:48;942.3;;;13.2;100.0
40013;BME280;37387;42.672;23.334;2023-05-24T03:26:48;942.3;;;13.6;100.0
40013;BME280;37387;42.672;23.334;2023-05-24T03:27:48;942.3;;;13.9;100.0
40013;BME280;37387;42.672;23.334;2023-05-24T03:28:48;942.3;;;14.3;100.0
40013;BME280;37387;42.672;23.334;2023-05-24T03:29:48;942.4;;;14.6;100.0
40013;BME280;37387;42.672;23.334;2023-05-24T03:30:49;942.5;;;15.0;100.0
40013;BME280;37387;42.672;23.334;2023-05-24T03:31:49;942.5;;;15.4;100.0
40013;BME280;37387;42.672;23.334;2023-05-24T03:32:48;942.6;;;15.7;100.0
40013;BME280;37387;42.672;23.334;2023-05-24T03:33:48;942.5;;;16.1;100.0
40013;BME280;37387;42.672;23.334;2023-05-24T03:34:48;942.5;;;16.5;100.0
40013;BME280;37387;42.672;23.334;2023-05-24T03:35:48;942.6;;;16.9;100.0
40013;BME280;37387;42.672;23.334;2023-05-24T03:36:48;942.6;;;17.3;100.0
40013;BME280;37387;42.672;23.334;2023-05-24T03:37:48;942.6;;;17.7;100.0
40013;BME280;37387;42.672;23.334;2023-05-24T03:38:48;942.7;;;17.9;92.1
40013;BME280;37387;42.672;23.334;2023-05-24T03:39:48;942.7;;;18.2;92.1
40013;BME280;37387;42.672;23.334;2023-05-24T03:40:48;942.7;;;18.5;79.3
40013;BME280;37387;42.672;23.334;2023-05-24T03:41:48;942.7;;;18.8;79.3
40013;BME280;37387;42.672;23.334;2023-05-24T03:42:48;942.7;;;18.7;75.5
40013;BME280;37387;42.672;23.334;2023-05-24T03:43:48;942.7;;;18.6;75.2
40013;BME280;37387;42.672;23.334;2023-05-24T03:44:48;942.7;;;18.7;75.2
40013;BME280;37387;42.672;23.334;2023-05-24T03:45:49;942.7;;;18.9;74.1
40013;BME280;37387;42.672;23.334;2023-05-24T03:46:48;942.8;;;19.3;74.1
40013;BME280;37387;42.672;23.334;2023-05-24T03:47:48;942.8;;;19.5;73.7
40013;BME280;37387;42.672;23.334;2023-05-24T03:48:49;942.8;;;19.9;70.8
40013;BME280;37387;42.672;23.334;2023-05-24T03:49:49;942.8;;;20.4;69.4
40013;BME280;37387;42.672;23.334;2023-05-24T03:50:48;942.7;;;20.2;66.2
40013;BME280;37387;42.672;23.334;2023-05-24T03:52:48;942.8;;;20.0;66.1
40013;BME280;37387;42.672;23.334;2023-05-24T03:53:48;942.8;;;19.8;66.1
40013;BME280;37387;42.672;23.334;2023-05-24T03:54:50;942.8;;;20.0;66.8
40013;BME280;37387;42.672;23.334;2023-05-24T03:55:48;942.8;;;20.3;65.9
40013;BME280;37387;42.672;23.334;2023-05-24T03:56:48;942.8;;;20.2;65.9
40013;BME280;37387;42.672;23.334;2023-05-24T03:57:49;942.8;;;20.0;65.9
40013;BME280;37387;42.672;23.334;2023-05-24T03:58:48;942.8;;;20.4;65.9
40013;BME280;37387;42.672;23.334;2023-05-24T03:59:48;942.7;;;20.5;64.4
40013;BME280;37387;42.672;23.334;2023-05-24T04:00:48;942.7;;;21.0;64.4
40013;BME280;37387;42.672;23.334;2023-05-24T04:01:48;942.8;;;21.1;60.6
40013;BME280;37387;42.672;23.334;2023-05-24T04:03:50;942.7;;;21.4;60.1
40013;BME280;37387;42.672;23.334;2023-05-24T04:04:49;942.8;;;21.9;58.7
40013;BME280;37387;42.672;23.334;2023-05-24T04:06:49;942.8;;;20.9;60.4
40013;BME280;37387;42.672;23.334;2023-05-24T04:07:48;942.8;;;20.6;60.4
40013;BME280;37387;42.672;23.334;2023-05-24T04:08:49;942.8;;;21.5;60.8
40013;BME280;37387;42.672;23.334;2023-05-24T04:09:49;942.8;;;22.3;57.5
40013;BME280;37387;42.672;23.334;2023-05-24T04:10:49;942.8;;;22.8;55.0
40013;BME280;37387;42.672;23.334;2023-05-24T04:11:48;942.8;;;22.1;55.0
40013;BME280;37387;42.672;23.334;2023-05-24T04:12:48;942.8;;;21.6;55.8
40013;BME280;37387;42.672;23.334;2023-05-24T04:13:48;942.8;;;21.4;57.5
40013;BME280;37387;42.672;23.334;2023-05-24T04:14:48;942.8;;;20.9;58.2
40013;BME280;37387;42.672;23.334;2023-05-24T04:15:48;942.8;;;20.5;62.6
40013;BME280;37387;42.672;23.334;2023-05-24T04:16:48;942.8;;;20.4;62.6
40013;BME280;37387;42.672;23.334;2023-05-24T04:18:48;942.9;;;20.3;62.4
40013;BME280;37387;42.672;23.334;2023-05-24T04:19:48;942.9;;;19.9;63.4
40013;BME280;37387;42.672;23.334;2023-05-24T04:20:48;942.9;;;20.9;63.1
40013;BME280;37387;42.672;23.334;2023-05-24T04:21:48;942.9;;;21.6;59.5
40013;BME280;37387;42.672;23.334;2023-05-24T04:22:48;942.9;;;22.0;57.2
40013;BME280;37387;42.672;23.334;2023-05-24T04:23:49;942.9;;;21.9;57.0
40013;BME280;37387;42.672;23.334;2023-05-24T04:24:48;942.9;;;21.1;57.0
40013;BME280;37387;42.672;23.334;2023-05-24T04:25:49;942.8;;;20.5;58.9
40013;BME280;37387;42.672;23.334;2023-05-24T04:26:48;942.8;;;20.9;61.4
40013;BME280;37387;42.672;23.334;2023-05-24T04:27:48;942.8;;;21.8;61.4
40013;BME280;37387;42.672;23.334;2023-05-24T04:28:49;942.8;;;21.6;57.7
40013;BME280;37387;42.672;23.334;2023-05-24T04:29:48;942.8;;;21.5;57.7
40013;BME280;37387;42.672;23.334;2023-05-24T04:30:49;942.8;;;20.9;60.2
40013;BME280;37387;42.672;23.334;2023-05-24T04:31:49;942.9;;;20.6;61.6
40013;BME280;37387;42.672;23.334;2023-05-24T04:32:48;942.9;;;20.5;61.6
40013;BME280;37387;42.672;23.334;2023-05-24T04:33:48;942.9;;;20.1;62.7
40013;BME280;37387;42.672;23.334;2023-05-24T04:35:48;942.9;;;20.4;64.1
40013;BME280;37387;42.672;23.334;2023-05-24T04:36:48;942.9;;;20.8;62.4
40013;BME280;37387;42.672;23.334;2023-05-24T04:37:49;942.9;;;21.4;59.9
40013;BME280;37387;42.672;23.334;2023-05-24T04:38:48;942.9;;;22.2;59.9
40013;BME280;37387;42.672;23.334;2023-05-24T04:39:48;943.0;;;21.8;57.8
40013;BME280;37387;42.672;23.334;2023-05-24T04:40:48;943.0;;;21.5;57.8
40013;BME280;37387;42.672;23.334;2023-05-24T04:42:49;943.0;;;21.8;57.5
40013;BME280;37387;42.672;23.334;2023-05-24T04:43:48;943.0;;;21.9;57.5
40013;BME280;37387;42.672;23.334;2023-05-24T04:44:49;943.0;;;22.1;57.3
40013;BME280;37387;42.672;23.334;2023-05-24T04:45:49;943.0;;;22.0;57.6
40013;BME280;37387;42.672;23.334;2023-05-24T04:46:50;943.1;;;22.3;57.0
40013;BME280;37387;42.672;23.334;2023-05-24T04:47:48;943.1;;;22.0;57.0
40013;BME280;37387;42.672;23.334;2023-05-24T04:48:48;943.1;;;21.3;57.2
40013;BME280;37387;42.672;23.334;2023-05-24T04:49:49;943.1;;;21.9;58.8
40013;BME280;37387;42.672;23.334;2023-05-24T04:50:49;943.1;;;22.1;58.8
40013;BME280;37387;42.672;23.334;2023-05-24T04:51:48;943.1;;;22.6;55.6
40013;BME280;37387;42.672;23.334;2023-05-24T04:52:49;943.1;;;23.4;53.2
40013;BME280;37387;42.672;23.334;2023-05-24T04:53:48;943.1;;;23.3;53.2
40013;BME280;37387;42.672;23.334;2023-05-24T04:54:48;943.1;;;23.0;53.4
40013;BME280;37387;42.672;23.334;2023-05-24T04:55:50;943.1;;;22.1;56.2
40013;BME280;37387;42.672;23.334;2023-05-24T04:56:48;943.1;;;22.5;55.1
40013;BME280;37387;42.672;23.334;2023-05-24T04:57:48;943.2;;;22.9;53.6
40013;BME280;37387;42.672;23.334;2023-05-24T04:58:48;943.2;;;23.6;51.8
40013;BME280;37387;42.672;23.334;2023-05-24T04:59:48;943.2;;;22.2;51.8
40013;BME280;37387;42.672;23.334;2023-05-24T05:00:48;943.2;;;22.6;54.1
40013;BME280;37387;42.672;23.334;2023-05-24T05:01:48;943.1;;;22.2;54.1
40013;BME280;37387;42.672;23.334;2023-05-24T05:02:48;943.2;;;22.0;56.0
40013;BME280;37387;42.672;23.334;2023-05-24T05:03:48;943.2;;;23.0;56.0
40013;BME280;37387;42.672;23.334;2023-05-24T05:04:48;943.2;;;23.6;53.1
40013;BME280;37387;42.672;23.334;2023-05-24T05:05:48;943.2;;;24.3;51.9
40013;BME280;37387;42.672;23.334;2023-05-24T05:06:48;943.2;;;23.3;51.4
40013;BME280;37387;42.672;23.334;2023-05-24T05:07:48;943.2;;;24.7;48.7
40013;BME280;37387;42.672;23.334;2023-05-24T05:08:48;943.2;;;25.2;48.7
40013;BME280;37387;42.672;23.334;2023-05-24T05:09:48;943.2;;;26.2;45.1
40013;BME280;37387;42.672;23.334;2023-05-24T05:10:48;943.2;;;26.7;45.1
40013;BME280;37387;42.672;23.334;2023-05-24T05:11:50;943.2;;;26.6;43.2
40013;BME280;37387;42.672;23.334;2023-05-24T05:12:49;943.2;;;25.6;43.2
40013;BME280;37387;42.672;23.334;2023-05-24T05:13:49;943.2;;;25.5;45.7
40013;BME280;37387;42.672;23.334;2023-05-24T05:14:48;943.2;;;24.4;45.7
40013;BME280;37387;42.672;23.334;2023-05-24T05:15:48;943.2;;;23.9;49.7
40013;BME280;37387;42.672;23.334;2023-05-24T05:17:48;943.2;;;24.2;50.2
40013;BME280;37387;42.672;23.334;2023-05-24T05:18:48;943.3;;;25.0;47.9
40013;BME280;37387;42.672;23.334;2023-05-24T05:19:49;943.3;;;24.4;48.4
40013;BME280;37387;42.672;23.334;2023-05-24T05:20:48;943.3;;;25.1;48.4
40013;BME280;37387;42.672;23.334;2023-05-24T05:21:48;943.3;;;24.8;47.1
40013;BME280;37387;42.672;23.334;2023-05-24T05:22:48;943.3;;;24.9;47.1
40013;BME280;37387;42.672;23.334;2023-05-24T05:23:48;943.2;;;25.6;47.1
40013;BME280;37387;42.672;23.334;2023-05-24T05:24:48;943.2;;;24.2;47.5
40013;BME280;37387;42.672;23.334;2023-05-24T05:25:48;943.3;;;25.0;47.5
40013;BME280;37387;42.672;23.334;2023-05-24T05:26:48;943.3;;;25.1;47.2
40013;BME280;37387;42.672;23.334;2023-05-24T05:27:48;943.3;;;25.2;46.1
40013;BME280;37387;42.672;23.334;2023-05-24T05:28:48;943.2;;;26.1;46.9
40013;BME280;37387;42.672;23.334;2023-05-24T05:29:48;943.3;;;26.9;43.3
40013;BME280;37387;42.672;23.334;2023-05-24T05:30:48;943.3;;;27.0;42.2
40013;BME280;37387;42.672;23.334;2023-05-24T05:31:49;943.3;;;26.5;43.4
40013;BME280;37387;42.672;23.334;2023-05-24T05:32:50;943.4;;;27.3;42.0
40013;BME280;37387;42.672;23.334;2023-05-24T05:33:49;943.4;;;27.4;42.0
40013;BME280;37387;42.672;23.334;2023-05-24T05:34:49;943.3;;;26.6;42.7
40013;BME280;37387;42.672;23.334;2023-05-24T05:35:49;943.3;;;26.9;42.6
40013;BME280;37387;42.672;23.334;2023-05-24T05:36:49;943.4;;;27.3;41.9
40013;BME280;37387;42.672;23.334;2023-05-24T05:37:48;943.4;;;28.0;41.9
40013;BME280;37387;42.672;23.334;2023-05-24T05:38:49;943.4;;;28.1;39.7
40013;BME280;37387;42.672;23.334;2023-05-24T05:39:48;943.4;;;28.3;38.9
40013;BME280;37387;42.672;23.334;2023-05-24T05:40:48;943.4;;;27.6;38.9
40013;BME280;37387;42.672;23.334;2023-05-24T05:41:50;943.4;;;27.2;40.7
40013;BME280;37387;42.672;23.334;2023-05-24T05:42:48;943.4;;;28.1;39.0
40013;BME280;37387;42.672;23.334;2023-05-24T05:43:48;943.4;;;27.7;39.0
40013;BME280;37387;42.672;23.334;2023-05-24T05:44:49;943.3;;;27.9;39.7
40013;BME280;37387;42.672;23.334;2023-05-24T05:46:48;943.3;;;26.7;39.7
40013;BME280;37387;42.672;23.334;2023-05-24T05:47:48;943.2;;;25.3;44.5
40013;BME280;37387;42.672;23.334;2023-05-24T05:48:48;943.3;;;24.5;45.7
40013;BME280;37387;42.672;23.334;2023-05-24T05:49:48;943.3;;;25.0;45.7
40013;BME280;37387;42.672;23.334;2023-05-24T05:50:48;943.3;;;24.1;45.7
40013;BME280;37387;42.672;23.334;2023-05-24T05:51:48;943.3;;;24.3;48.0
40013;BME280;37387;42.672;23.334;2023-05-24T05:52:48;943.3;;;24.5;47.0
40013;BME280;37387;42.672;23.334;2023-05-24T05:53:49;943.3;;;24.2;47.6
40013;BME280;37387;42.672;23.334;2023-05-24T05:54:48;943.3;;;24.6;47.6
40013;BME280;37387;42.672;23.334;2023-05-24T05:55:48;943.3;;;24.8;47.1
40013;BME280;37387;42.672;23.334;2023-05-24T05:56:48;943.3;;;24.4;46.2
40013;BME280;37387;42.672;23.334;2023-05-24T05:57:48;943.3;;;25.1;47.6
40013;BME280;37387;42.672;23.334;2023-05-24T05:58:48;943.3;;;25.7;45.2
40013;BME280;37387;42.672;23.334;2023-05-24T05:59:48;943.3;;;25.6;44.2
40013;BME280;37387;42.672;23.334;2023-05-24T06:00:48;943.3;;;26.1;44.2
40013;BME280;37387;42.672;23.334;2023-05-24T06:01:49;943.4;;;27.1;41.1
40013;BME280;37387;42.672;23.334;2023-05-24T06:02:48;943.4;;;27.9;41.1
40013;BME280;37387;42.672;23.334;2023-05-24T06:03:49;943.4;;;27.3;39.5
40013;BME280;37387;42.672;23.334;2023-05-24T06:04:49;943.4;;;27.0;39.7
40013;BME280;37387;42.672;23.334;2023-05-24T06:05:48;943.2;;;27.2;39.9
40013;BME280;37387;42.672;23.334;2023-05-24T06:06:48;943.2;;;25.5;39.9
40013;BME280;37387;42.672;23.334;2023-05-24T06:07:49;943.4;;;24.7;45.3
40013;BME280;37387;42.672;23.334;2023-05-24T06:08:48;943.4;;;23.6;47.8
40013;BME280;37387;42.672;23.334;2023-05-24T06:09:48;943.4;;;23.8;47.8
40013;BME280;37387;42.672;23.334;2023-05-24T06:10:48;943.4;;;24.9;45.7
40013;BME280;37387;42.672;23.334;2023-05-24T06:11:48;943.4;;;24.7;45.7
40013;BME280;37387;42.672;23.334;2023-05-24T06:12:48;943.4;;;25.5;45.3
40013;BME280;37387;42.672;23.334;2023-05-24T06:13:48;943.4;;;26.4;44.1
40013;BME280;37387;42.672;23.334;2023-05-24T06:14:49;943.4;;;26.6;41.7
40013;BME280;37387;42.672;23.334;2023-05-24T06:15:48;943.4;;;27.0;41.7
40013;BME280;37387;42.672;23.334;2023-05-24T06:16:48;943.4;;;26.8;40.5
40013;BME280;37387;42.672;23.334;2023-05-24T06:17:49;943.4;;;27.3;40.8
40013;BME280;37387;42.672;23.334;2023-05-24T06:18:48;943.4;;;27.6;40.1
40013;BME280;37387;42.672;23.334;2023-05-24T06:19:48;943.4;;;27.1;39.7
40013;BME280;37387;42.672;23.334;2023-05-24T06:20:48;943.4;;;27.4;40.4
40013;BME280;37387;42.672;23.334;2023-05-24T06:21:49;943.5;;;28.2;40.7
40013;BME280;37387;42.672;23.334;2023-05-24T06:22:48;943.4;;;27.6;39.5
40013;BME280;37387;42.672;23.334;2023-05-24T06:23:48;943.4;;;26.1;41.9
40013;BME280;37387;42.672;23.334;2023-05-24T06:24:48;943.4;;;25.7;41.9
40013;BME280;37387;42.672;23.334;2023-05-24T06:26:49;943.4;;;25.2;44.0
40013;BME280;37387;42.672;23.334;2023-05-24T06:28:48;943.4;;;26.0;44.6
40013;BME280;37387;42.672;23.334;2023-05-24T06:29:48;943.4;;;26.1;43.6
40013;BME280;37387;42.672;23.334;2023-05-24T06:30:49;943.4;;;26.5;42.4
40013;BME280;37387;42.672;23.334;2023-05-24T06:31:49;943.4;;;27.5;40.8
40013;BME280;37387;42.672;23.334;2023-05-24T06:32:48;943.4;;;28.4;40.8
40013;BME280;37387;42.672;23.334;2023-05-24T06:34:48;943.4;;;28.2;38.9
40013;BME280;37387;42.672;23.334;2023-05-24T06:35:49;943.5;;;28.9;38.5
40013;BME280;37387;42.672;23.334;2023-05-24T06:36:50;943.5;;;29.5;37.1
40013;BME280;37387;42.672;23.334;2023-05-24T06:37:48;943.5;;;29.8;37.1
40013;BME280;37387;42.672;23.334;2023-05-24T06:38:48;943.5;;;29.4;36.2
40013;BME280;37387;42.672;23.334;2023-05-24T06:39:49;943.4;;;28.2;37.5
40013;BME280;37387;42.672;23.334;2023-05-24T06:40:48;943.4;;;28.1;38.3
40013;BME280;37387;42.672;23.334;2023-05-24T06:41:48;943.4;;;28.2;38.3
40013;BME280;37387;42.672;23.334;2023-05-24T06:42:49;943.3;;;26.8;40.8
40013;BME280;37387;42.672;23.334;2023-05-24T06:43:48;943.3;;;26.5;40.8
40013;BME280;37387;42.672;23.334;2023-05-24T06:44:49;943.3;;;26.0;42.7
40013;BME280;37387;42.672;23.334;2023-05-24T06:45:49;943.4;;;27.7;40.6
40013;BME280;37387;42.672;23.334;2023-05-24T06:46:48;943.4;;;26.6;40.6
40013;BME280;37387;42.672;23.334;2023-05-24T06:47:48;943.3;;;26.9;41.6
40013;BME280;37387;42.672;23.334;2023-05-24T06:48:50;943.3;;;26.7;41.1
40013;BME280;37387;42.672;23.334;2023-05-24T06:49:49;943.3;;;26.0;41.1
40013;BME280;37387;42.672;23.334;2023-05-24T06:50:48;943.3;;;27.0;43.0
40013;BME280;37387;42.672;23.334;2023-05-24T06:51:49;943.3;;;27.6;40.5
40013;BME280;37387;42.672;23.334;2023-05-24T06:52:49;943.3;;;27.3;41.0
40013;BME280;37387;42.672;23.334;2023-05-24T06:53:48;943.3;;;27.1;41.2
40013;BME280;37387;42.672;23.334;2023-05-24T06:54:49;943.3;;;26.7;42.6
40013;BME280;37387;42.672;23.334;2023-05-24T06:55:49;943.3;;;26.1;42.6
40013;BME280;37387;42.672;23.334;2023-05-24T06:56:49;943.3;;;26.9;42.6
40013;BME280;37387;42.672;23.334;2023-05-24T06:57:49;943.0;;;27.1;41.4
40013;BME280;37387;42.672;23.334;2023-05-24T06:58:49;943.3;;;27.9;40.5
40013;BME280;37387;42.672;23.334;2023-05-24T06:59:48;943.3;;;28.1;39.5
40013;BME280;37387;42.672;23.334;2023-05-24T07:00:49;943.4;;;28.5;38.4
40013;BME280;37387;42.672;23.334;2023-05-24T07:01:49;943.4;;;28.1;39.0
40013;BME280;37387;42.672;23.334;2023-05-24T07:02:48;943.4;;;27.3;39.0
40013;BME280;37387;42.672;23.334;2023-05-24T07:03:48;943.3;;;28.0;39.6
40013;BME280;37387;42.672;23.334;2023-05-24T07:04:48;943.4;;;29.2;39.4
40013;BME280;37387;42.672;23.334;2023-05-24T07:05:48;943.3;;;30.2;37.5
40013;BME280;37387;42.672;23.334;2023-05-24T07:06:48;943.3;;;30.3;35.4
40013;BME280;37387;42.672;23.334;2023-05-24T07:07:49;943.3;;;30.0;36.1
40013;BME280;37387;42.672;23.334;2023-05-24T07:08:48;943.3;;;29.9;36.1
40013;BME280;37387;42.672;23.334;2023-05-24T07:09:49;943.3;;;30.3;36.5
40013;BME280;37387;42.672;23.334;2023-05-24T07:10:48;943.3;;;29.6;36.7
40013;BME280;37387;42.672;23.334;2023-05-24T07:11:49;943.3;;;30.1;36.7
40013;BME280;37387;42.672;23.334;2023-05-24T07:12:49;943.3;;;30.4;36.4
40013;BME280;37387;42.672;23.334;2023-05-24T07:13:48;943.3;;;29.8;36.2
40013;BME280;37387;42.672;23.334;2023-05-24T07:14:49;943.3;;;29.6;37.2
40013;BME280;37387;42.672;23.334;2023-05-24T07:15:48;943.3;;;30.0;36.6
40013;BME280;37387;42.672;23.334;2023-05-24T07:16:48;943.3;;;29.5;36.6
40013;BME280;37387;42.672;23.334;2023-05-24T07:17:49;943.3;;;29.6;37.5
40013;BME280;37387;42.672;23.334;2023-05-24T07:18:49;943.3;;;30.1;35.8
40013;BME280;37387;42.672;23.334;2023-05-24T07:20:49;943.3;;;30.0;35.7
40013;BME280;37387;42.672;23.334;2023-05-24T07:21:49;943.4;;;30.9;34.4
40013;BME280;37387;42.672;23.334;2023-05-24T07:22:50;943.4;;;29.7;36.2
40013;BME280;37387;42.672;23.334;2023-05-24T07:23:49;943.4;;;30.0;36.2
40013;BME280;37387;42.672;23.334;2023-05-24T07:24:49;943.3;;;29.8;36.0
40013;BME280;37387;42.672;23.334;2023-05-24T07:26:49;943.4;;;29.1;37.1
40013;BME280;37387;42.672;23.334;2023-05-24T07:27:48;943.4;;;29.6;37.1
40013;BME280;37387;42.672;23.334;2023-05-24T07:28:48;943.3;;;30.6;34.8
40013;BME280;37387;42.672;23.334;2023-05-24T07:29:49;943.3;;;30.4;34.8
40013;BME280;37387;42.672;23.334;2023-05-24T07:30:49;943.3;;;29.8;34.9
40013;BME280;37387;42.672;23.334;2023-05-24T07:31:50;943.3;;;30.1;34.8
40013;BME280;37387;42.672;23.334;2023-05-24T07:32:48;943.4;;;29.4;36.0
40013;BME280;37387;42.672;23.334;2023-05-24T07:33:48;943.4;;;29.3;36.0
40013;BME280;37387;42.672;23.334;2023-05-24T07:34:48;943.4;;;29.6;34.8
40013;BME280;37387;42.672;23.334;2023-05-24T07:35:48;943.4;;;29.2;36.1
40013;BME280;37387;42.672;23.334;2023-05-24T07:36:48;943.4;;;28.8;36.1
40013;BME280;37387;42.672;23.334;2023-05-24T07:37:49;943.3;;;28.4;36.8
40013;BME280;37387;42.672;23.334;2023-05-24T07:39:48;943.4;;;29.7;37.6
40013;BME280;37387;42.672;23.334;2023-05-24T07:40:48;943.4;;;29.8;35.9
40013;BME280;37387;42.672;23.334;2023-05-24T07:41:49;943.3;;;29.9;35.3
40013;BME280;37387;42.672;23.334;2023-05-24T07:43:48;943.4;;;30.2;34.1
40013;BME280;37387;42.672;23.334;2023-05-24T07:44:48;943.4;;;29.7;34.1
40013;BME280;37387;42.672;23.334;2023-05-24T07:45:48;943.4;;;29.2;35.7
40013;BME280;37387;42.672;23.334;2023-05-24T07:46:49;943.4;;;29.1;35.7
40013;BME280;37387;42.672;23.334;2023-05-24T07:47:48;943.4;;;29.5;36.2
40013;BME280;37387;42.672;23.334;2023-05-24T07:49:49;943.4;;;29.4;35.8
40013;BME280;37387;42.672;23.334;2023-05-24T07:50:49;943.4;;;29.3;35.7
40013;BME280;37387;42.672;23.334;2023-05-24T07:51:48;943.4;;;29.1;35.7
40013;BME280;37387;42.672;23.334;2023-05-24T07:52:49;943.3;;;28.3;38.0
40013;BME280;37387;42.672;23.334;2023-05-24T07:53:48;943.3;;;28.0;38.0
40013;BME280;37387;42.672;23.334;2023-05-24T07:54:49;943.3;;;28.3;38.9
40013;BME280;37387;42.672;23.334;2023-05-24T07:55:49;943.3;;;28.9;38.6
40013;BME280;37387;42.672;23.334;2023-05-24T07:56:48;943.3;;;29.3;36.9
40013;BME280;37387;42.672;23.334;2023-05-24T07:57:49;943.3;;;29.2;36.9
40013;BME280;37387;42.672;23.334;2023-05-24T07:58:49;943.3;;;29.8;35.2
40013;BME280;37387;42.672;23.334;2023-05-24T07:59:49;943.3;;;29.9;35.1
40013;BME280;37387;42.672;23.334;2023-05-24T08:00:48;943.3;;;29.5;35.1
40013;BME280;37387;42.672;23.334;2023-05-24T08:01:48;943.3;;;29.7;36.1
40013;BME280;37387;42.672;23.334;2023-05-24T08:02:48;943.3;;;29.4;35.3
40013;BME280;37387;42.672;23.334;2023-05-24T08:03:48;943.4;;;29.7;35.8
40013;BME280;37387;42.672;23.334;2023-05-24T08:04:48;943.3;;;30.2;35.7
40013;BME280;37387;42.672;23.334;2023-05-24T08:05:50;943.3;;;30.3;33.9
40013;BME280;37387;42.672;23.334;2023-05-24T08:06:49;943.3;;;30.6;33.5
40013;BME280;37387;42.672;23.334;2023-05-24T08:07:49;943.3;;;30.8;33.0
40013;BME280;37387;42.672;23.334;2023-05-24T08:08:49;943.3;;;30.3;33.7
40013;BME280;37387;42.672;23.334;2023-05-24T08:09:49;943.3;;;30.9;33.8
40013;BME280;37387;42.672;23.334;2023-05-24T08:10:49;943.3;;;31.6;33.8
40013;BME280;37387;42.672;23.334;2023-05-24T08:11:49;943.2;;;30.2;31.1
40013;BME280;37387;42.672;23.334;2023-05-24T08:12:49;943.2;;;29.0;34.9
40013;BME280;37387;42.672;23.334;2023-05-24T08:13:49;943.2;;;28.3;35.4
40013;BME280;37387;42.672;23.334;2023-05-24T08:14:49;943.2;;;28.4;35.2
40013;BME280;37387;42.672;23.334;2023-05-24T08:15:49;943.2;;;28.9;35.0